CLW2 weather

Ullswater Airport
Ullswater, Ontario, Canada

Public forecast

Using degrees Celsius for public forecast. Weather courtesy of forecast.io.

METAR (pilot weather report)

Closest report is Muskoka Airport, 16.5 nm (30.6 km) SSE. Retrieved 2019/07/17 05:26 UTC (25 minutes ago):

CYQA 170526Z AUTO 19004KT 9SM BKN020 BKN030 BKN039 22/20 A2989 RMK SLP119 DENSITY ALT 1900FT

TAF (pilot weather forecast)

Forecast is more than 6 hours old.

Closest forecast is Muskoka Airport, 16.5 nm (30.6 km) SSE. Retrieved 2019/07/16 20:00 UTC (10 hours ago):

TAF CYQA 161938Z 1620/1702 25008KT P6SM FEW015 SCT030 OVC070 TEMPO 1620/1702 P6SM -SHRA BKN015 OVC030 RMK FCST BASED ON AUTO OBS. NXT FCST WILL BE ISSUED AT 171145Z